Time;durP1;ratioP1;P1;durP2;ratioP2;P2;SDS_P1;SDS_P2;PMS_P1;PMS_P2;Temp;Humidity;BMP_temperature;BMP_pressure;BME280_temperature;BME280_humidity;BME280_pressure;Samples;Min_cycle;Max_cycle;Signal;HPM_P1;HPM_P2
2022/01/01 00:01:05;;;;;;;18.95;10.82;;;;;;;12.07;100.00;101362.91;5056193;28;20027;-59
2022/01/01 00:03:30;;;;;;;16.63;10.45;;;;;;;12.06;100.00;101364.72;5071259;28;20150;-59
2022/01/01 00:05:55;;;;;;;19.92;10.93;;;;;;;12.08;100.00;101362.00;5077418;28;20808;-59
2022/01/01 00:08:21;;;;;;;22.58;11.45;;;;;;;12.07;100.00;101363.78;5075424;28;20130;-59
2022/01/01 00:10:46;;;;;;;16.58;10.45;;;;;;;12.11;100.00;101369.78;5076600;28;20036;-59
2022/01/01 00:13:11;;;;;;;13.23;9.85;;;;;;;12.11;100.00;101360.09;5074456;28;20028;-59
2022/01/01 00:15:37;;;;;;;15.57;10.30;;;;;;;12.10;100.00;101360.19;5076865;28;20774;-59
2022/01/01 00:18:02;;;;;;;20.75;10.00;;;;;;;12.11;100.00;101361.88;5077095;28;20028;-59
2022/01/01 00:20:27;;;;;;;20.38;10.02;;;;;;;12.14;100.00;101365.25;5075684;28;20757;-59
2022/01/01 00:22:53;;;;;;;12.88;9.20;;;;;;;12.13;100.00;101363.50;5074435;28;20885;-59
2022/01/01 00:25:18;;;;;;;15.10;8.82;;;;;;;12.12;100.00;101367.09;5072417;28;20031;-59
2022/01/01 00:27:43;;;;;;;14.15;8.65;;;;;;;12.13;100.00;101363.50;5073595;28;20040;-59
2022/01/01 00:30:10;;;;;;;16.52;8.50;;;;;;;12.13;100.00;101362.69;5075847;28;20035;-59
2022/01/01 00:32:36;;;;;;;17.10;8.82;;;;;;;12.12;100.00;101359.19;5075767;28;20040;-59
2022/01/01 00:35:03;;;;;;;12.55;8.13;;;;;;;12.12;100.00;101356.56;5079323;28;20032;-59
2022/01/01 00:37:28;;;;;;;10.65;7.85;;;;;;;12.13;100.00;101360.88;5078231;28;20032;-58
2022/01/01 00:39:55;;;;;;;14.13;7.80;;;;;;;11.97;100.00;101346.63;5077813;28;20128;-58
2022/01/01 00:42:21;;;;;;;12.23;7.13;;;;;;;12.14;100.00;101361.75;5076308;28;20090;-59
2022/01/01 00:44:46;;;;;;;12.52;7.00;;;;;;;12.17;100.00;101362.47;5076694;28;20783;-59
2022/01/01 00:47:12;;;;;;;12.75;7.05;;;;;;;12.18;100.00;101353.66;5076875;28;20028;-59
2022/01/01 00:49:37;;;;;;;17.35;7.13;;;;;;;12.17;100.00;101359.84;5079859;28;20768;-59
2022/01/01 00:52:03;;;;;;;16.25;7.90;;;;;;;12.19;100.00;101359.78;5078733;28;20457;-59
2022/01/01 00:54:28;;;;;;;12.35;6.78;;;;;;;12.21;100.00;101356.16;5077868;28;20143;-59
2022/01/01 00:56:54;;;;;;;12.15;6.97;;;;;;;12.21;100.00;101365.84;5066047;28;20909;-60
2022/01/01 00:59:20;;;;;;;17.77;7.63;;;;;;;12.21;100.00;101360.56;5078257;28;20516;-59
2022/01/01 01:01:46;;;;;;;11.95;6.47;;;;;;;12.21;100.00;101361.44;5078427;28;20043;-59
2022/01/01 01:04:12;;;;;;;16.35;7.07;;;;;;;12.21;100.00;101366.69;5078611;28;20032;-59
2022/01/01 01:06:37;;;;;;;12.13;6.68;;;;;;;12.22;100.00;101367.56;5078910;28;20032;-59
2022/01/01 01:09:03;;;;;;;13.15;6.75;;;;;;;12.21;100.00;101366.69;5079234;28;20093;-59
2022/01/01 01:11:29;;;;;;;15.23;7.55;;;;;;;12.18;100.00;101361.56;5077883;28;20030;-59
2022/01/01 01:13:59;;;;;;;9.40;5.68;;;;;;;12.21;100.00;101360.56;5076888;28;20446;-59
2022/01/01 01:16:29;;;;;;;13.18;6.63;;;;;;;12.24;100.00;101365.72;5076297;28;20036;-59
2022/01/01 01:18:54;;;;;;;12.07;6.43;;;;;;;12.24;100.00;101358.66;5075281;28;20038;-59
2022/01/01 01:21:23;;;;;;;10.93;6.60;;;;;;;12.24;100.00;101356.03;5079290;28;20784;-59
2022/01/01 01:23:49;;;;;;;12.60;6.25;;;;;;;12.22;100.00;101347.34;5078999;28;20062;-59
2022/01/01 01:26:14;;;;;;;10.50;6.30;;;;;;;12.22;100.00;101351.75;5078683;28;20075;-59
2022/01/01 01:28:46;;;;;;;14.45;6.43;;;;;;;12.02;100.00;101318.34;5094773;28;20173;-59
2022/01/01 01:31:12;;;;;;;19.58;7.55;;;;;;;12.22;100.00;101371.06;5079258;28;20035;-58
2022/01/01 01:33:37;;;;;;;14.63;6.47;;;;;;;12.18;100.00;101366.84;5080090;28;20511;-59
2022/01/01 01:36:02;;;;;;;13.32;6.57;;;;;;;11.90;100.00;101317.97;5079991;28;20035;-60
2022/01/01 01:38:28;;;;;;;7.72;5.95;;;;;;;12.18;100.00;101360.69;5079478;28;20579;-59
2022/01/01 01:40:53;;;;;;;10.05;6.07;;;;;;;12.18;100.00;101361.56;5077512;28;20763;-59
2022/01/01 01:43:19;;;;;;;11.93;6.45;;;;;;;12.13;100.00;101352.97;5075323;28;20031;-59
2022/01/01 01:45:44;;;;;;;10.20;5.80;;;;;;;12.18;100.00;101365.97;5078456;28;20027;-59
2022/01/01 01:48:10;;;;;;;11.43;5.60;;;;;;;12.18;100.00;101363.34;5076730;28;20119;-59
2022/01/01 01:50:37;;;;;;;12.57;6.43;;;;;;;12.18;100.00;101361.56;5079003;28;20031;-59
2022/01/01 01:53:03;;;;;;;21.30;5.55;;;;;;;11.86;100.00;101317.25;5078377;28;20036;-59
2022/01/01 01:55:29;;;;;;;11.80;5.93;;;;;;;11.96;100.00;101358.09;5073351;28;20028;-59
2022/01/01 01:57:55;;;;;;;13.90;6.07;;;;;;;11.91;100.00;101362.69;5076027;28;20084;-59
2022/01/01 02:03:09;;;;;;;13.80;6.80;;;;;;;11.93;100.00;101371.38;5078000;28;20074;-59
2022/01/01 02:05:35;;;;;;;11.15;5.93;;;;;;;11.99;100.00;101380.81;5078249;28;20437;-59
2022/01/01 02:08:01;;;;;;;7.85;5.35;;;;;;;11.95;100.00;101369.56;5078652;28;20036;-59
2022/01/01 02:10:26;;;;;;;10.95;5.60;;;;;;;11.97;100.00;101378.22;5077121;28;20039;-59
2022/01/01 02:12:55;;;;;;;15.52;6.28;;;;;;;11.95;100.00;101380.09;5094172;28;20031;-59
2022/01/01 02:15:40;;;;;;;11.77;5.25;;;;;;;11.98;100.00;101385.22;5078335;28;20028;-59
2022/01/01 02:18:05;;;;;;;10.18;5.65;;;;;;;11.99;100.00;101386.09;5076609;28;20160;-59
2022/01/01 02:20:31;;;;;;;11.55;5.28;;;;;;;11.91;100.00;101373.22;5077038;28;20101;-59
2022/01/01 02:23:00;;;;;;;11.82;5.90;;;;;;;12.01;100.00;101369.28;5077033;28;20820;-59
2022/01/01 02:25:26;;;;;;;16.25;5.22;;;;;;;11.49;100.00;101288.03;5071798;28;20108;-59
2022/01/01 02:27:51;;;;;;;10.77;4.78;;;;;;;12.02;100.00;101380.69;5075857;28;20114;-59
2022/01/01 02:30:17;;;;;;;10.68;5.30;;;;;;;12.00;100.00;101377.25;5077029;28;20035;-59
2022/01/01 02:32:42;;;;;;;9.18;5.63;;;;;;;11.96;100.00;101368.66;5077748;28;20028;-59
2022/01/01 02:35:10;;;;;;;9.23;5.75;;;;;;;11.92;100.00;101368.81;5077517;28;20098;-59
2022/01/01 02:37:37;;;;;;;7.13;4.45;;;;;;;11.86;100.00;101369.94;5078912;28;20823;-59
2022/01/01 02:40:03;;;;;;;11.48;5.50;;;;;;;11.82;100.00;101372.72;5077008;28;20036;-59
2022/01/01 02:42:28;;;;;;;10.18;5.95;;;;;;;11.74;100.00;101373.03;5072474;28;20861;-59
2022/01/01 02:44:54;;;;;;;15.35;6.15;;;;;;;11.70;100.00;101381.94;5074187;28;20039;-59
2022/01/01 02:47:20;;;;;;;10.60;5.30;;;;;;;11.70;100.00;101379.28;5077489;28;20040;-59
2022/01/01 02:49:46;;;;;;;10.45;6.57;;;;;;;11.71;100.00;101378.41;5077386;28;20147;-59
2022/01/01 02:52:11;;;;;;;10.20;5.10;;;;;;;11.64;100.00;101355.84;5076022;28;20038;-59
2022/01/01 02:54:36;;;;;;;12.48;6.72;;;;;;;11.78;100.00;101369.38;5076781;28;20119;-59
2022/01/01 02:57:02;;;;;;;9.55;6.20;;;;;;;11.77;100.00;101367.63;5075839;28;20036;-59
2022/01/01 02:59:28;;;;;;;13.52;7.05;;;;;;;11.73;100.00;101364.28;5076876;28;20054;-59
2022/01/01 03:01:53;;;;;;;10.93;6.78;;;;;;;11.72;100.00;101372.25;5077281;28;20028;-59
2022/01/01 03:04:18;;;;;;;12.60;6.72;;;;;;;11.72;100.00;101372.25;5077244;28;20087;-59
2022/01/01 03:06:45;;;;;;;9.48;6.22;;;;;;;11.74;100.00;101370.41;5076331;28;20035;-59
2022/01/01 03:09:11;;;;;;;11.07;6.50;;;;;;;11.78;100.00;101369.38;5074736;28;20036;-59
2022/01/01 03:11:36;;;;;;;12.02;6.18;;;;;;;11.79;100.00;101365.81;5074839;28;20640;-59
2022/01/01 03:14:01;;;;;;;11.02;6.78;;;;;;;11.79;100.00;101363.19;5073973;28;20679;-59
2022/01/01 03:16:27;;;;;;;10.32;6.22;;;;;;;11.78;100.00;101358.84;5072360;28;20161;-59
2022/01/01 03:18:53;;;;;;;18.98;7.03;;;;;;;11.74;100.00;101354.59;5074074;28;20032;-59
2022/01/01 03:21:18;;;;;;;9.73;5.32;;;;;;;11.77;100.00;101354.47;5051947;28;20802;-59
2022/01/01 03:23:43;;;;;;;14.20;6.00;;;;;;;11.74;100.00;101354.59;5071987;28;20032;-59
2022/01/01 03:26:09;;;;;;;12.25;6.43;;;;;;;11.75;100.00;101351.06;5076477;28;21036;-58
2022/01/01 03:28:34;;;;;;;13.20;6.13;;;;;;;11.76;100.00;101347.50;5078225;28;20036;-58
2022/01/01 03:30:59;;;;;;;8.13;5.20;;;;;;;11.79;100.00;101348.22;5077146;28;20031;-59
2022/01/01 03:33:25;;;;;;;11.70;6.63;;;;;;;11.76;100.00;101331.72;5074723;28;20023;-59
2022/01/01 03:35:50;;;;;;;11.93;5.95;;;;;;;11.84;100.00;101341.91;5089513;28;20502;-58
2022/01/01 03:38:16;;;;;;;9.55;5.43;;;;;;;11.83;100.00;101342.84;5072986;28;20082;-59
2022/01/01 03:40:42;;;;;;;9.30;5.05;;;;;;;11.81;100.00;101344.69;5056120;28;20876;-59
2022/01/01 03:43:07;;;;;;;8.68;4.53;;;;;;;11.79;100.00;101342.13;5067800;28;20039;-59
2022/01/01 03:45:33;;;;;;;10.55;5.80;;;;;;;11.82;100.00;101346.41;5074253;28;20032;-59
2022/01/01 03:47:59;;;;;;;9.80;5.55;;;;;;;11.84;100.00;101340.16;5091012;28;20031;-59
2022/01/01 03:50:24;;;;;;;10.95;5.50;;;;;;;11.85;100.00;101339.25;5072318;28;20036;-59
2022/01/01 03:52:50;;;;;;;11.65;5.63;;;;;;;11.86;100.00;101333.06;5076448;28;20028;-59
2022/01/01 03:55:15;;;;;;;14.88;5.97;;;;;;;11.88;100.00;101339.09;5074836;28;20071;-58
2022/01/01 03:57:41;;;;;;;9.35;5.07;;;;;;;11.90;100.00;101345.16;5074910;28;20065;-59
2022/01/01 04:00:11;;;;;;;13.95;5.38;;;;;;;11.92;100.00;101351.25;5073529;28;20060;-59
2022/01/01 04:02:37;;;;;;;8.77;5.55;;;;;;;11.78;100.00;101329.88;5074675;28;20137;-59
2022/01/01 04:05:03;;;;;;;8.73;4.75;;;;;;;11.95;100.00;101343.22;5075577;28;20032;-59
2022/01/01 04:07:32;;;;;;;8.68;5.38;;;;;;;11.94;100.00;101348.53;5074635;28;20865;-59
2022/01/01 04:09:58;;;;;;;11.10;4.65;;;;;;;11.93;100.00;101358.19;5078314;28;20035;-58
2022/01/01 04:12:24;;;;;;;10.63;5.43;;;;;;;11.90;100.00;101358.31;5077269;28;20036;-59
2022/01/01 04:14:49;;;;;;;10.00;4.75;;;;;;;11.91;100.00;101351.28;5077651;28;20565;-59
2022/01/01 04:17:15;;;;;;;13.68;5.13;;;;;;;11.93;100.00;101350.31;5077912;28;20024;-59
2022/01/01 04:19:40;;;;;;;9.77;4.43;;;;;;;11.91;100.00;101346.88;5079007;28;20036;-59
2022/01/01 04:22:07;;;;;;;13.45;4.82;;;;;;;11.90;100.00;101345.16;5079111;28;20124;-59
2022/01/01 04:24:33;;;;;;;6.53;4.18;;;;;;;11.93;100.00;101350.31;5078864;28;20506;-59
2022/01/01 04:26:58;;;;;;;12.52;4.43;;;;;;;11.93;100.00;101345.03;5078034;28;20032;-59
2022/01/01 04:29:24;;;;;;;10.63;5.22;;;;;;;11.94;100.00;101349.38;5076172;28;20036;-58
2022/01/01 04:31:49;;;;;;;8.25;4.55;;;;;;;11.97;100.00;101351.03;5077861;28;20043;-58
2022/01/01 04:34:15;;;;;;;12.05;4.65;;;;;;;11.88;100.00;101328.56;5079258;28;20054;-58
2022/01/01 04:36:48;;;;;;;9.40;4.85;;;;;;;12.00;100.00;101350.91;5077292;28;20132;-58
2022/01/01 04:39:13;;;;;;;6.68;4.95;;;;;;;11.99;100.00;101343.94;5078404;28;20126;-58
2022/01/01 04:41:39;;;;;;;11.25;4.90;;;;;;;11.95;100.00;101350.25;5077403;28;20039;-60
2022/01/01 04:44:05;;;;;;;7.78;4.28;;;;;;;11.92;100.00;101353.88;5078301;28;20028;-58
2022/01/01 04:46:30;;;;;;;8.35;4.85;;;;;;;11.92;100.00;101360.91;5078197;28;20942;-58
2022/01/01 04:48:55;;;;;;;6.68;4.18;;;;;;;11.94;100.00;101356.44;5077661;28;20028;-59
2022/01/01 04:51:21;;;;;;;20.05;5.05;;;;;;;11.93;100.00;101360.84;5076398;28;20257;-58
2022/01/01 04:53:46;;;;;;;4.72;3.20;;;;;;;11.93;100.00;101345.03;5076910;28;20039;-58
2022/01/01 04:56:18;;;;;;;7.90;4.28;;;;;;;11.92;100.00;101356.50;5074871;28;20111;-58
2022/01/01 04:58:43;;;;;;;11.95;4.45;;;;;;;11.91;100.00;101365.31;5076607;28;20042;-58
2022/01/01 05:01:09;;;;;;;9.23;4.53;;;;;;;11.90;100.00;101360.97;5076322;28;20036;-58
2022/01/01 05:03:34;;;;;;;7.70;3.72;;;;;;;11.88;100.00;101362.81;5075846;28;20047;-58
2022/01/01 05:06:00;;;;;;;10.85;4.43;;;;;;;11.90;100.00;101355.69;5091053;28;20032;-58
2022/01/01 05:08:26;;;;;;;13.10;4.47;;;;;;;11.92;100.00;101359.16;5076465;28;20092;-58
2022/01/01 05:10:51;;;;;;;7.78;3.88;;;;;;;11.88;100.00;101347.00;5077758;28;20032;-58
2022/01/01 05:13:19;;;;;;;6.45;3.80;;;;;;;11.92;100.00;101358.28;5077570;28;20853;-58
2022/01/01 05:15:44;;;;;;;12.85;3.28;;;;;;;11.89;100.00;101359.28;5076916;28;20028;-58
2022/01/01 05:18:09;;;;;;;6.93;3.47;;;;;;;11.90;100.00;101362.72;5077657;28;20038;-58
2022/01/01 05:20:35;;;;;;;11.60;5.13;;;;;;;11.93;100.00;101365.28;5076250;28;20143;-59
2022/01/01 05:23:00;;;;;;;9.07;4.20;;;;;;;11.93;100.00;101355.56;5077547;28;20051;-58
2022/01/01 05:25:26;;;;;;;8.25;3.55;;;;;;;11.91;100.00;101367.94;5077868;28;20711;-58
2022/01/01 05:27:51;;;;;;;7.72;3.58;;;;;;;11.89;100.00;101372.44;5075166;28;20028;-58
2022/01/01 05:30:16;;;;;;;8.00;3.58;;;;;;;11.84;100.00;101361.22;5074364;28;20035;-58
2022/01/01 05:32:42;;;;;;;10.30;4.75;;;;;;;11.83;100.00;101370.03;5075357;28;20050;-58
2022/01/01 05:35:07;;;;;;;6.57;3.25;;;;;;;11.86;100.00;101369.06;5076924;28;20139;-58
2022/01/01 05:37:33;;;;;;;10.32;4.63;;;;;;;11.87;100.00;101373.41;5075531;28;20031;-57
2022/01/01 05:39:58;;;;;;;15.95;4.68;;;;;;;11.86;100.00;101375.19;5075752;28;20032;-58
2022/01/01 05:42:24;;;;;;;7.95;3.92;;;;;;;11.86;100.00;101372.56;5076516;28;20782;-58
2022/01/01 05:44:49;;;;;;;14.13;4.85;;;;;;;11.86;100.00;101380.47;5078485;28;20032;-58
2022/01/01 05:47:15;;;;;;;9.02;4.15;;;;;;;11.86;100.00;101379.59;5077193;28;20028;-58
2022/01/01 05:49:40;;;;;;;10.23;3.70;;;;;;;11.85;100.00;101376.09;5076432;28;20032;-58
2022/01/01 05:52:06;;;;;;;14.30;3.33;;;;;;;11.84;100.00;101378.78;5074689;28;20086;-58
2022/01/01 05:54:31;;;;;;;6.15;3.42;;;;;;;11.82;100.00;101373.59;5074781;28;20078;-58
2022/01/01 05:56:56;;;;;;;12.13;4.82;;;;;;;11.82;100.00;101373.59;5074515;28;20170;-58
2022/01/01 05:59:22;;;;;;;7.28;4.03;;;;;;;11.80;100.00;101375.41;5073199;28;20036;-58
2022/01/01 06:01:47;;;;;;;10.25;4.30;;;;;;;11.77;100.00;101378.16;5077893;28;20032;-58
2022/01/01 06:04:12;;;;;;;10.25;4.00;;;;;;;11.74;100.00;101379.16;5078100;28;20067;-58
2022/01/01 06:06:38;;;;;;;6.75;3.75;;;;;;;11.77;100.00;101386.06;5076371;28;20028;-58
2022/01/01 06:09:03;;;;;;;10.68;3.90;;;;;;;11.76;100.00;101384.38;5076472;28;20042;-58
2022/01/01 06:11:28;;;;;;;9.50;3.67;;;;;;;11.77;100.00;101396.59;5074730;28;20883;-58
2022/01/01 06:13:54;;;;;;;7.07;3.35;;;;;;;11.70;100.00;101384.56;5078001;28;20063;-59
2022/01/01 06:16:19;;;;;;;11.57;3.85;;;;;;;11.55;100.00;101350.94;5077843;28;20082;-58
2022/01/01 06:18:44;;;;;;;6.50;3.50;;;;;;;11.76;100.00;101387.00;5077686;28;20056;-59
2022/01/01 06:21:10;;;;;;;8.10;3.72;;;;;;;11.73;100.00;101385.34;5071270;28;20065;-59
2022/01/01 06:23:37;;;;;;;9.60;4.20;;;;;;;11.74;100.00;101388.81;5074453;28;20044;-58
2022/01/01 06:26:04;;;;;;;6.95;3.65;;;;;;;11.32;100.00;101317.63;5075326;28;20045;-58
2022/01/01 06:28:29;;;;;;;7.07;3.75;;;;;;;11.59;100.00;101360.44;5076742;28;20390;-59
2022/01/01 06:30:55;;;;;;;6.82;3.35;;;;;;;11.69;100.00;101393.41;5075331;28;20135;-59
2022/01/01 06:33:21;;;;;;;7.43;3.60;;;;;;;11.64;100.00;101380.41;5076931;28;20761;-58
2022/01/01 06:35:46;;;;;;;7.75;3.30;;;;;;;11.48;100.00;101362.63;5077767;28;20031;-59
2022/01/01 06:38:12;;;;;;;9.73;3.85;;;;;;;11.59;100.00;101376.25;5076005;28;20028;-58
2022/01/01 06:40:42;;;;;;;8.13;3.58;;;;;;;11.55;100.00;101385.16;5073961;28;20107;-59
2022/01/01 06:43:09;;;;;;;8.43;3.78;;;;;;;11.53;100.00;101379.94;5072915;28;20032;-58
2022/01/01 06:45:34;;;;;;;6.60;4.07;;;;;;;11.52;100.00;101369.50;5058931;28;20120;-59
2022/01/01 06:48:00;;;;;;;9.98;4.25;;;;;;;11.49;100.00;101366.97;5058000;28;20035;-59
2022/01/01 06:50:25;;;;;;;13.55;3.67;;;;;;;11.46;100.00;101361.81;5075834;28;20024;-58
2022/01/01 06:52:50;;;;;;;7.25;3.90;;;;;;;11.41;100.00;101369.91;5069827;28;20044;-59
2022/01/01 06:55:16;;;;;;;8.63;4.32;;;;;;;11.37;100.00;101373.56;5073195;28;20118;-58
2022/01/01 06:57:42;;;;;;;7.15;3.63;;;;;;;11.29;100.00;101379.09;5072684;28;20376;-58
2022/01/01 07:00:09;;;;;;;8.60;3.65;;;;;;;11.19;100.00;101388.25;5073983;28;20028;-58
2022/01/01 07:02:43;;;;;;;8.27;4.07;;;;;;;11.09;100.00;101383.38;5076520;28;20429;-59
2022/01/01 07:05:09;;;;;;;9.17;4.30;;;;;;;10.92;100.00;101376.09;5075468;28;20443;-59
2022/01/01 07:07:34;;;;;;;9.50;4.35;;;;;;;10.80;100.00;101384.44;5073373;28;20042;-58
2022/01/01 07:09:59;;;;;;;8.93;4.22;;;;;;;10.69;100.00;101378.69;5075127;28;20032;-58
2022/01/01 07:12:25;;;;;;;17.58;4.47;;;;;;;10.61;100.00;101378.94;5074084;28;20714;-59
2022/01/01 07:14:50;;;;;;;10.27;5.30;;;;;;;10.54;100.00;101377.47;5076349;28;20380;-58
2022/01/01 07:17:16;;;;;;;11.05;4.53;;;;;;;10.47;100.00;101369.84;5059892;28;20059;-58
2022/01/01 07:19:41;;;;;;;9.13;4.75;;;;;;;10.38;100.00;101378.00;5071637;28;20047;-58
2022/01/01 07:22:06;;;;;;;8.82;5.28;;;;;;;10.09;100.00;101347.44;5072729;28;20086;-58
2022/01/01 07:24:32;;;;;;;14.40;5.05;;;;;;;10.31;100.00;101382.63;5073007;28;20036;-58
2022/01/01 07:26:57;;;;;;;6.78;4.85;;;;;;;10.25;100.00;101396.81;5074614;28;20858;-58
2022/01/01 07:29:23;;;;;;;9.35;5.15;;;;;;;10.13;100.00;101386.69;5074450;28;20446;-58
2022/01/01 07:31:48;;;;;;;10.93;5.32;;;;;;;10.16;100.00;101396.25;5072966;28;20113;-58
2022/01/01 07:34:13;;;;;;;11.38;4.80;;;;;;;10.14;100.00;101406.81;5070889;28;20123;-59
2022/01/01 07:36:39;;;;;;;11.13;5.55;;;;;;;10.08;100.00;101409.59;5067228;28;20039;-59
2022/01/01 07:39:04;;;;;;;8.13;4.28;;;;;;;9.99;100.00;101409.91;5077155;28;20024;-59
2022/01/01 07:41:30;;;;;;;7.47;4.50;;;;;;;9.91;100.00;101409.28;5064115;28;20028;-59
2022/01/01 07:43:55;;;;;;;6.15;4.35;;;;;;;9.86;100.00;101412.94;5051583;28;20134;-59
2022/01/01 07:46:20;;;;;;;7.88;5.32;;;;;;;9.77;100.00;101409.69;5045812;28;20040;-55
2022/01/01 07:48:46;;;;;;;12.27;5.35;;;;;;;9.73;100.00;101413.31;5046965;28;20783;-59
2022/01/01 07:51:11;;;;;;;10.30;4.55;;;;;;;9.69;100.00;101411.72;5045014;28;20028;-58
2022/01/01 07:53:36;;;;;;;9.75;5.30;;;;;;;9.64;100.00;101407.50;5045599;28;20888;-58
2022/01/01 07:56:02;;;;;;;8.05;4.80;;;;;;;9.62;100.00;101410.19;5045479;28;20024;-57
2022/01/01 07:58:27;;;;;;;14.30;5.80;;;;;;;9.15;100.00;101343.38;5045666;28;20858;-57
2022/01/01 08:00:53;;;;;;;6.57;4.90;;;;;;;9.57;100.00;101406.81;5045644;28;20873;-57
2022/01/01 08:03:19;;;;;;;13.10;5.38;;;;;;;9.58;100.00;101407.69;5046859;28;20246;-57
2022/01/01 08:05:44;;;;;;;9.98;5.20;;;;;;;9.58;100.00;101415.56;5047398;28;20851;-58
2022/01/01 08:08:10;;;;;;;10.13;6.75;;;;;;;9.60;100.00;101416.34;5045441;28;20032;-58
2022/01/01 08:10:37;;;;;;;9.18;6.00;;;;;;;9.63;100.00;101408.41;5045267;28;20127;-58
2022/01/01 08:13:03;;;;;;;14.55;5.88;;;;;;;9.67;100.00;101407.38;5045525;28;20047;-59
2022/01/01 08:15:29;;;;;;;12.55;6.22;;;;;;;9.66;100.00;101398.69;5046137;28;20031;-58
2022/01/01 08:17:54;;;;;;;7.80;6.05;;;;;;;9.79;100.00;101408.78;5047136;28;20020;-58
2022/01/01 08:20:20;;;;;;;11.02;6.07;;;;;;;9.80;100.00;101408.72;5046096;28;20789;-59
2022/01/01 08:22:45;;;;;;;7.07;5.28;;;;;;;9.76;100.00;101396.63;5046517;28;20093;-58
2022/01/01 08:25:11;;;;;;;9.10;5.40;;;;;;;9.89;100.00;101407.59;5046567;28;20020;-58
2022/01/01 08:27:36;;;;;;;8.52;5.97;;;;;;;9.95;100.00;101402.16;5045956;28;20928;-59
2022/01/01 08:30:03;;;;;;;10.02;5.60;;;;;;;9.95;100.00;101408.28;5047620;28;20094;-58
2022/01/01 08:32:28;;;;;;;9.57;6.25;;;;;;;10.01;100.00;101408.06;5045427;28;20024;-58
2022/01/01 08:34:53;;;;;;;8.98;5.85;;;;;;;10.09;100.00;101408.69;5046588;28;20082;-58
2022/01/01 08:37:19;;;;;;;13.15;5.60;;;;;;;10.11;100.00;101406.88;5045221;28;20028;-59
2022/01/01 08:39:44;;;;;;;8.63;5.85;;;;;;;10.13;100.00;101412.94;5046072;28;20070;-59
2022/01/01 08:42:10;;;;;;;8.85;5.00;;;;;;;10.18;100.00;101411.06;5046504;28;20028;-58
2022/01/01 08:44:35;;;;;;;22.38;6.35;;;;;;;10.21;100.00;101408.31;5047114;28;20866;-58
2022/01/01 08:47:01;;;;;;;10.15;5.35;;;;;;;10.24;100.00;101410.84;5046734;28;20043;-59
2022/01/01 08:49:26;;;;;;;14.50;4.82;;;;;;;10.30;100.00;101408.94;5047704;28;20089;-59
2022/01/01 08:51:55;;;;;;;7.25;5.35;;;;;;;10.33;100.00;101414.97;5045326;28;20031;-59
2022/01/01 08:54:20;;;;;;;8.40;5.18;;;;;;;10.37;100.00;101405.22;5046370;28;20063;-58
2022/01/01 08:56:46;;;;;;;7.97;4.38;;;;;;;10.37;100.00;101400.81;5050340;28;20024;-58
2022/01/01 08:59:11;;;;;;;6.75;4.57;;;;;;;10.48;100.00;101414.44;5050221;28;20942;-58
2022/01/01 09:01:36;;;;;;;16.35;4.90;;;;;;;10.52;100.00;101409.94;5049652;28;20135;-58
2022/01/01 09:04:03;;;;;;;9.25;4.32;;;;;;;10.53;100.00;101409.03;5049384;28;21058;-58
2022/01/01 09:06:29;;;;;;;7.05;4.53;;;;;;;10.59;100.00;101421.97;5048210;28;20036;-59
2022/01/01 09:08:54;;;;;;;7.18;4.60;;;;;;;10.49;100.00;101394.28;5048622;28;20125;-58
2022/01/01 09:11:20;;;;;;;6.18;4.45;;;;;;;10.71;100.00;101429.47;5048918;28;21011;-59
2022/01/01 09:13:45;;;;;;;11.32;4.45;;;;;;;10.75;100.00;101428.41;5049133;28;20035;-59
2022/01/01 09:16:12;;;;;;;8.05;4.15;;;;;;;10.80;100.00;101430.91;5049063;28;20846;-59
2022/01/01 09:18:42;;;;;;;8.73;3.97;;;;;;;10.85;100.00;101423.72;5047223;28;20126;-58
2022/01/01 09:21:08;;;;;;;8.77;4.20;;;;;;;10.92;100.00;101415.53;5049117;28;20048;-58
2022/01/01 09:23:34;;;;;;;7.43;4.25;;;;;;;10.94;100.00;101403.22;5047875;28;20135;-58
2022/01/01 09:26:02;;;;;;;9.18;4.07;;;;;;;11.07;100.00;101414.16;5049351;28;20038;-59
2022/01/01 09:28:29;;;;;;;7.05;4.25;;;;;;;11.13;100.00;101430.56;5049471;28;20032;-58
2022/01/01 09:30:55;;;;;;;11.35;4.47;;;;;;;11.21;100.00;101418.00;5049107;28;20110;-58
2022/01/01 09:33:21;;;;;;;5.05;3.40;;;;;;;11.17;100.00;101397.13;5047739;28;20157;-58
2022/01/01 09:35:46;;;;;;;7.70;3.63;;;;;;;11.34;100.00;101414.91;5047783;28;20857;-58
2022/01/01 09:38:12;;;;;;;9.10;4.35;;;;;;;11.34;100.00;101401.75;5048591;28;20054;-58
2022/01/01 09:40:37;;;;;;;11.07;3.33;;;;;;;11.44;100.00;101411.03;5048478;28;20031;-59
2022/01/01 09:43:03;;;;;;;6.97;3.22;;;;;;;11.48;100.00;101410.00;5028834;28;20062;-58
2022/01/01 09:45:29;;;;;;;7.50;3.90;;;;;;;11.51;100.00;101399.34;5046994;28;20538;-59
2022/01/01 09:47:55;;;;;;;5.60;3.22;;;;;;;11.58;100.00;101406.09;5048597;28;20898;-58
2022/01/01 09:50:20;;;;;;;5.82;3.08;;;;;;;11.60;100.00;101399.84;5030630;28;20028;-59
2022/01/01 09:52:45;;;;;;;8.85;3.85;;;;;;;11.65;100.00;101404.97;5048641;28;20028;-59
2022/01/01 09:55:11;;;;;;;6.47;4.03;;;;;;;11.65;100.00;101405.81;5047538;28;20039;-59
2022/01/01 09:57:37;;;;;;;6.10;3.60;;;;;;;11.70;100.00;101416.16;5048757;28;20059;-59
2022/01/01 10:00:04;;;;;;;5.13;3.03;;;;;;;11.29;100.00;101336.13;5048262;28;20028;-59
2022/01/01 10:02:29;;;;;;;4.78;2.45;;;;;;;11.73;100.00;101410.78;5048981;28;20090;-58
2022/01/01 10:04:55;;;;;;;5.53;3.33;;;;;;;11.54;100.00;101379.03;5047156;28;20900;-59
2022/01/01 10:07:28;;;;;;;4.25;3.10;;;;;;;11.74;100.00;101418.66;5046859;28;20040;-59
2022/01/01 10:09:54;;;;;;;5.95;3.42;;;;;;;11.76;100.00;101408.06;5048655;28;20123;-59
2022/01/01 10:12:19;;;;;;;4.60;2.80;;;;;;;11.75;100.00;101415.13;5048656;28;20875;-61
2022/01/01 10:14:47;;;;;;;7.90;3.28;;;;;;;11.81;100.00;101411.38;5048602;28;20028;-59
2022/01/01 10:17:16;;;;;;;12.05;3.13;;;;;;;11.86;100.00;101403.31;5047976;28;20227;-58
2022/01/01 10:19:42;;;;;;;6.53;2.88;;;;;;;11.90;100.00;101395.19;5047948;28;20028;-59
2022/01/01 10:22:13;;;;;;;7.70;3.63;;;;;;;11.93;100.00;101389.81;5046168;28;20090;-61
2022/01/01 10:27:42;;;;;;;5.43;2.88;;;;;;;11.97;100.00;101386.13;5046572;28;20034;-59
2022/01/01 10:27:42;;;;;;;7.20;3.25;;;;;;;11.78;100.00;101345.66;5047077;28;20878;-59
2022/01/01 10:30:21;;;;;;;6.35;2.92;;;;;;;12.09;100.00;101383.03;5046366;28;20067;-59
2022/01/01 10:33:12;;;;;;;6.05;3.08;;;;;;;12.13;100.00;101384.59;5047580;28;20035;-58
2022/01/01 10:35:40;;;;;;;5.80;2.60;;;;;;;12.17;100.00;101370.38;5063312;28;20167;-58
2022/01/01 10:38:10;;;;;;;6.47;2.80;;;;;;;12.20;100.00;101370.25;5047258;28;20030;-57
2022/01/01 10:40:35;;;;;;;8.73;3.08;;;;;;;12.21;100.00;101371.09;5045531;28;20834;-58
2022/01/01 10:43:00;;;;;;;5.65;3.03;;;;;;;12.23;100.00;101358.75;5045651;28;20097;-58
2022/01/01 10:45:37;;;;;;;5.95;2.42;;;;;;;12.26;100.00;101354.22;5047284;28;20028;-58
2022/01/01 10:48:15;;;;;;;12.52;2.85;;;;;;;12.26;100.00;101338.41;5047577;28;20054;-58
2022/01/01 10:50:41;;;;;;;4.63;2.60;;;;;;;12.29;100.00;101333.00;5045391;28;20135;-58
2022/01/01 10:53:15;;;;;;;4.00;2.55;;;;;;;12.35;100.00;101320.47;5046218;28;20139;-58
2022/01/01 10:55:44;;;;;;;;;;;;;;;12.40;100.00;101321.13;5046624;28;20043;-58
2022/01/01 10:58:16;;;;;;;4.50;2.33;;;;;;;12.53;100.00;101317.06;5046297;28;20721;-56
2022/01/01 11:00:42;;;;;;;4.88;2.65;;;;;;;12.67;100.00;101312.03;5045871;28;21073;-55
2022/01/01 11:03:09;;;;;;;7.50;2.70;;;;;;;12.82;100.00;101313.97;5045240;28;20023;-57
2022/01/01 11:05:36;;;;;;;3.95;2.28;;;;;;;12.92;100.00;101312.63;5045470;28;20127;-56
2022/01/01 11:08:04;;;;;;;6.10;2.70;;;;;;;13.07;100.00;101305.81;5030403;28;20838;-56
2022/01/01 11:10:30;;;;;;;3.72;2.05;;;;;;;12.98;100.00;101280.69;5047021;28;20020;-57
2022/01/01 11:12:56;;;;;;;5.03;2.13;;;;;;;13.24;100.00;101312.06;5029844;28;20111;-57